createdAt,value
2023-01-25T00:02:13.991Z,90.88
2023-01-25T00:04:42.930Z,90.97
2023-01-25T00:07:11.297Z,91.12
2023-01-25T00:09:39.580Z,91.32
2023-01-25T00:12:08.018Z,91.66
2023-01-25T00:14:36.430Z,91.75
2023-01-25T00:17:05.428Z,91.93
2023-01-25T00:19:33.702Z,92.51
2023-01-25T00:22:02.761Z,92.44
2023-01-25T00:24:31.393Z,92.43
2023-01-25T00:26:59.670Z,92.90
2023-01-25T00:29:27.925Z,92.33
2023-01-25T00:32:21.246Z,92.15
2023-01-25T00:34:50.679Z,91.99
2023-01-25T00:37:39.724Z,92.04
2023-01-25T00:40:12.451Z,92.06
2023-01-25T00:42:41.352Z,92.23
2023-01-25T00:45:12.289Z,92.94
2023-01-25T00:47:41.216Z,93.76
2023-01-25T00:50:11.357Z,94.07
2023-01-25T00:52:41.524Z,94.48
2023-01-25T00:55:10.592Z,93.47
2023-01-25T00:57:40.034Z,93.32
2023-01-25T01:00:11.653Z,93.25
2023-01-25T01:02:40.075Z,93.14
2023-01-25T01:05:09.950Z,92.68
2023-01-25T01:07:39.172Z,92.89
2023-01-25T01:10:09.546Z,93.21
2023-01-25T01:12:38.111Z,93.34
2023-01-25T01:15:10.488Z,93.10
2023-01-25T01:17:39.256Z,93.11
2023-01-25T01:20:10.875Z,92.37
2023-01-25T01:22:39.459Z,92.49
2023-01-25T01:25:10.469Z,92.41
2023-01-25T01:27:39.372Z,92.07
2023-01-25T01:30:10.927Z,92.22
2023-01-25T01:32:39.720Z,92.67
2023-01-25T01:35:09.684Z,93.26
2023-01-25T01:37:42.859Z,92.65
2023-01-25T01:40:13.625Z,93.24
2023-01-25T01:42:57.050Z,93.74
2023-01-25T01:45:52.107Z,93.52
2023-01-25T01:48:32.781Z,93.78
2023-01-25T01:51:08.138Z,94.10
2023-01-25T01:53:37.701Z,93.95
2023-01-25T01:56:13.160Z,94.27
2023-01-25T01:58:42.796Z,94.51
2023-01-25T02:01:11.839Z,94.04
2023-01-25T02:03:40.884Z,93.65
2023-01-25T02:06:15.238Z,94.01
2023-01-25T02:08:44.365Z,94.02
2023-01-25T02:11:13.363Z,94.51
2023-01-25T02:13:41.847Z,95.22
2023-01-25T02:16:16.219Z,95.64
2023-01-25T02:18:44.741Z,95.98
2023-01-25T02:21:13.980Z,96.36
2023-01-25T02:23:50.234Z,96.57
2023-01-25T02:26:19.272Z,96.90
2023-01-25T02:28:50.466Z,96.94
2023-01-25T02:31:19.552Z,96.74
2023-01-25T02:33:49.716Z,96.65
2023-01-25T02:36:25.378Z,97.43
2023-01-25T02:38:57.230Z,97.72
2023-01-25T02:41:31.109Z,98.02
2023-01-25T02:44:00.094Z,97.53
2023-01-25T02:46:31.147Z,96.97
2023-01-25T02:49:00.600Z,97.09
2023-01-25T02:51:33.127Z,97.17
2023-01-25T02:54:02.141Z,96.97
2023-01-25T02:56:31.233Z,97.33
2023-01-25T02:59:04.640Z,97.86
2023-01-25T03:01:35.603Z,97.89
2023-01-25T03:04:05.182Z,97.76
2023-01-25T03:06:35.572Z,97.28
2023-01-25T03:09:05.736Z,96.68
2023-01-25T03:11:34.675Z,96.66
2023-01-25T03:14:03.277Z,96.63
2023-01-25T03:16:32.022Z,97.27
2023-01-25T03:19:00.545Z,97.53
2023-01-25T03:21:29.721Z,96.81
2023-01-25T03:24:00.772Z,96.52
2023-01-25T03:26:54.830Z,96.71
2023-01-25T03:29:28.097Z,97.36
2023-01-25T03:31:56.940Z,98.35
2023-01-25T03:34:25.732Z,98.13
2023-01-25T03:36:54.042Z,97.51
2023-01-25T03:39:22.607Z,97.77
2023-01-25T03:41:51.091Z,98.51
2023-01-25T03:44:19.439Z,98.94
2023-01-25T03:46:47.900Z,99.08
2023-01-25T03:49:17.794Z,99.70
2023-01-25T03:51:46.969Z,99.57
2023-01-25T03:54:15.768Z,99.59
2023-01-25T03:56:44.219Z,99.76
2023-01-25T03:59:17.135Z,99.33
2023-01-25T04:01:46.421Z,98.49
2023-01-25T04:04:15.126Z,98.12
2023-01-25T04:06:44.978Z,98.55
2023-01-25T04:09:13.803Z,98.92
2023-01-25T04:11:50.004Z,99.17
2023-01-25T04:14:28.345Z,98.90
2023-01-25T04:17:04.663Z,98.72
2023-01-25T04:19:37.987Z,98.15
2023-01-25T04:22:08.217Z,98.20
2023-01-25T04:24:39.099Z,99.10
2023-01-25T04:27:08.466Z,98.87
2023-01-25T04:29:42.261Z,98.72
2023-01-25T04:32:15.281Z,98.06
2023-01-25T04:34:44.218Z,97.37
2023-01-25T04:37:15.989Z,97.29
2023-01-25T04:39:59.350Z,97.27
2023-01-25T04:42:28.348Z,97.63
2023-01-25T04:44:58.168Z,97.80
2023-01-25T04:47:28.166Z,97.63
2023-01-25T04:49:57.339Z,97.08
2023-01-25T04:52:26.488Z,96.68
2023-01-25T04:54:54.799Z,96.73
2023-01-25T04:57:23.564Z,96.44
2023-01-25T04:59:53.678Z,96.42
2023-01-25T05:02:23.027Z,96.26
2023-01-25T05:04:51.924Z,96.17
2023-01-25T05:07:21.214Z,96.27
2023-01-25T05:09:49.708Z,96.49
2023-01-25T05:12:20.333Z,96.61
2023-01-25T05:14:55.687Z,96.35
2023-01-25T05:17:24.762Z,96.08
2023-01-25T05:19:53.299Z,95.93
2023-01-25T05:22:23.904Z,95.49
2023-01-25T05:24:55.044Z,94.75
2023-01-25T05:27:23.737Z,94.63
2023-01-25T05:29:56.002Z,94.54
2023-01-25T05:32:50.910Z,94.51
2023-01-25T05:35:19.556Z,94.77
2023-01-25T05:37:48.046Z,94.82
2023-01-25T05:40:20.436Z,94.18
2023-01-25T05:42:55.280Z,93.53
2023-01-25T05:45:23.761Z,92.77
2023-01-25T05:47:56.322Z,93.68
2023-01-25T05:50:24.848Z,93.12
2023-01-25T05:53:05.223Z,92.87
2023-01-25T05:55:36.260Z,92.30
2023-01-25T05:58:07.979Z,91.53
2023-01-25T06:00:36.427Z,91.26
2023-01-25T06:03:05.095Z,91.60
2023-01-25T06:05:37.663Z,91.36
2023-01-25T06:08:06.244Z,91.53
2023-01-25T06:10:43.946Z,91.47
2023-01-25T06:13:12.358Z,91.77
2023-01-25T06:15:40.698Z,92.18
2023-01-25T06:18:31.270Z,92.77
2023-01-25T06:21:18.305Z,92.56
2023-01-25T06:23:46.797Z,92.34
2023-01-25T06:26:16.021Z,92.53
2023-01-25T06:28:44.811Z,92.68
2023-01-25T06:31:15.063Z,92.05
2023-01-25T06:33:47.677Z,92.25
2023-01-25T06:36:19.670Z,92.55
2023-01-25T06:38:51.201Z,92.75
2023-01-25T06:41:20.432Z,92.43
2023-01-25T06:43:51.396Z,92.46
2023-01-25T06:46:20.111Z,93.14
2023-01-25T06:48:48.472Z,92.63
2023-01-25T06:51:17.940Z,93.01
2023-01-25T06:53:47.729Z,92.32
2023-01-25T06:56:17.979Z,92.04
2023-01-25T06:58:47.061Z,91.65
2023-01-25T07:01:18.998Z,91.92
2023-01-25T07:03:50.094Z,92.09
2023-01-25T07:06:19.368Z,92.28
2023-01-25T07:08:48.240Z,92.28
2023-01-25T07:11:18.192Z,91.75
2023-01-25T07:13:47.563Z,91.19
2023-01-25T07:16:19.085Z,92.00
2023-01-25T07:18:47.666Z,92.45
2023-01-25T07:21:17.843Z,91.95
2023-01-25T07:23:46.957Z,91.31
2023-01-25T07:26:18.032Z,97.38
2023-01-25T07:28:47.764Z,100.00
2023-01-25T07:31:17.458Z,97.17
2023-01-25T07:33:49.800Z,93.29
2023-01-25T07:36:19.189Z,92.69
2023-01-25T07:38:48.308Z,92.83
2023-01-25T07:41:17.313Z,92.63
2023-01-25T07:43:46.128Z,92.25
2023-01-25T07:46:19.744Z,91.84
2023-01-25T07:48:49.780Z,91.49
2023-01-25T07:51:23.319Z,90.95
2023-01-25T07:53:53.941Z,91.36
2023-01-25T07:56:24.451Z,91.68
2023-01-25T07:58:57.309Z,91.81
2023-01-25T08:01:27.713Z,91.20
2023-01-25T08:03:56.729Z,91.55
2023-01-25T08:06:29.963Z,91.83
2023-01-25T08:08:59.428Z,91.95
2023-01-25T08:11:30.024Z,91.69
2023-01-25T08:14:01.179Z,91.61
2023-01-25T08:16:31.225Z,91.26
2023-01-25T08:19:02.707Z,91.62
2023-01-25T08:21:32.849Z,91.87
2023-01-25T08:24:04.087Z,91.59
2023-01-25T08:26:33.065Z,91.53
2023-01-25T08:29:01.600Z,91.65
2023-01-25T08:31:32.940Z,91.43
2023-01-25T08:34:04.488Z,91.68
2023-01-25T08:36:33.807Z,91.97
2023-01-25T08:39:05.550Z,91.63
2023-01-25T08:41:35.636Z,91.38
2023-01-25T08:44:05.481Z,90.84
2023-01-25T08:46:34.842Z,90.93
2023-01-25T08:49:04.330Z,91.54
2023-01-25T08:51:33.627Z,92.94
2023-01-25T08:54:07.500Z,92.66
2023-01-25T08:56:37.848Z,91.82
2023-01-25T08:59:10.472Z,91.70
2023-01-25T09:01:39.397Z,91.98
2023-01-25T09:04:08.611Z,92.45
2023-01-25T09:06:37.203Z,92.62
2023-01-25T09:09:07.738Z,92.56
2023-01-25T09:11:37.552Z,92.10
2023-01-25T09:14:06.469Z,92.10
2023-01-25T09:16:35.390Z,92.00
2023-01-25T09:19:05.209Z,92.02
2023-01-25T09:21:36.914Z,92.07
2023-01-25T09:24:07.894Z,92.01
2023-01-25T09:26:39.439Z,92.23
2023-01-25T09:29:10.483Z,92.30
2023-01-25T09:31:40.060Z,92.47
2023-01-25T09:34:19.714Z,92.94
2023-01-25T09:36:48.037Z,93.49
2023-01-25T09:39:16.925Z,93.04
2023-01-25T09:42:15.438Z,93.07
2023-01-25T09:45:10.713Z,93.16
2023-01-25T09:47:45.750Z,93.14
2023-01-25T09:50:31.640Z,93.11
2023-01-25T09:53:16.446Z,92.74
2023-01-25T09:55:50.379Z,92.36
2023-01-25T09:58:22.549Z,92.03
2023-01-25T10:00:58.924Z,92.22
2023-01-25T10:03:33.482Z,92.24
2023-01-25T10:06:03.042Z,91.90
2023-01-25T10:08:36.112Z,91.59
2023-01-25T10:11:20.134Z,91.97
2023-01-25T10:13:49.101Z,91.61
2023-01-25T10:16:26.151Z,91.80
2023-01-25T10:19:01.139Z,91.88
2023-01-25T10:21:35.099Z,92.32
2023-01-25T10:24:24.618Z,92.92
2023-01-25T10:26:56.476Z,93.17
2023-01-25T10:29:28.121Z,92.40
2023-01-25T10:32:02.351Z,92.07
2023-01-25T10:34:54.293Z,92.35
2023-01-25T10:37:27.471Z,92.28
2023-01-25T10:40:02.360Z,91.74
2023-01-25T10:42:38.234Z,91.31
2023-01-25T10:45:13.354Z,90.87
2023-01-25T10:47:45.520Z,90.61
2023-01-25T10:50:45.563Z,90.83
2023-01-25T10:53:35.740Z,91.11
2023-01-25T10:56:19.162Z,91.25
2023-01-25T10:58:48.920Z,91.34
2023-01-25T11:01:28.839Z,90.96
2023-01-25T11:03:58.181Z,90.85
2023-01-25T11:06:35.007Z,91.05
2023-01-25T11:09:30.769Z,91.09
2023-01-25T11:12:01.578Z,90.85
2023-01-25T11:14:31.595Z,90.97
2023-01-25T11:17:01.671Z,91.28
2023-01-25T11:19:34.114Z,91.29
2023-01-25T11:22:19.442Z,91.15
2023-01-25T11:24:47.886Z,91.45
2023-01-25T11:27:20.027Z,91.14
2023-01-25T11:30:09.753Z,91.34
2023-01-25T11:32:40.175Z,92.56
2023-01-25T11:35:14.591Z,98.69
2023-01-25T11:37:58.429Z,95.54
2023-01-25T11:40:38.068Z,91.99
2023-01-25T11:43:20.940Z,91.40
2023-01-25T11:46:25.075Z,91.54
2023-01-25T11:49:09.270Z,92.05
2023-01-25T11:51:43.306Z,91.32
2023-01-25T11:54:40.795Z,90.96
2023-01-25T11:57:28.383Z,91.04
2023-01-25T12:00:10.697Z,91.06
2023-01-25T12:03:05.625Z,91.04
2023-01-25T12:05:50.086Z,91.44
2023-01-25T12:08:40.482Z,91.62
2023-01-25T12:11:16.689Z,91.71
2023-01-25T12:14:00.195Z,99.68
2023-01-25T12:16:51.875Z,100.00
2023-01-25T12:19:36.410Z,94.30
2023-01-25T12:22:34.520Z,91.58
2023-01-25T12:25:17.018Z,91.58
2023-01-25T12:28:02.609Z,91.84
2023-01-25T12:30:42.124Z,91.69
2023-01-25T12:33:16.544Z,91.72
2023-01-25T12:35:51.798Z,91.94
2023-01-25T12:38:26.981Z,92.59
2023-01-25T12:40:59.075Z,92.77
2023-01-25T12:43:36.757Z,92.39
2023-01-25T12:46:15.631Z,92.79
2023-01-25T12:48:49.057Z,92.56
2023-01-25T12:51:18.840Z,92.91
2023-01-25T12:53:48.343Z,92.97
2023-01-25T12:56:32.081Z,92.70
2023-01-25T12:59:11.118Z,92.62
2023-01-25T13:01:45.232Z,92.84
2023-01-25T13:04:27.524Z,92.89
2023-01-25T13:07:01.299Z,92.92
2023-01-25T13:09:40.262Z,92.72
2023-01-25T13:12:12.251Z,92.68
2023-01-25T13:14:42.098Z,92.64
2023-01-25T13:17:22.535Z,92.58
2023-01-25T13:19:53.118Z,92.38
2023-01-25T13:23:00.141Z,92.03
2023-01-25T13:25:28.589Z,92.15
2023-01-25T13:28:28.559Z,92.32
2023-01-25T13:30:57.072Z,92.57
2023-01-25T13:33:35.299Z,92.53
2023-01-25T13:36:38.632Z,98.10
2023-01-25T13:39:24.529Z,94.12
2023-01-25T13:41:59.627Z,92.21
2023-01-25T13:44:30.279Z,91.64
2023-01-25T13:47:02.016Z,91.07
2023-01-25T13:49:36.632Z,91.27
2023-01-25T13:52:05.732Z,91.64
2023-01-25T13:54:41.834Z,91.81
2023-01-25T13:57:14.281Z,92.13
2023-01-25T13:59:42.255Z,92.58
2023-01-25T14:02:18.373Z,92.41
2023-01-25T14:04:48.895Z,92.66
2023-01-25T14:07:19.815Z,92.65
2023-01-25T14:09:49.218Z,92.91
2023-01-25T14:12:30.558Z,93.04
2023-01-25T14:15:16.111Z,92.34
2023-01-25T14:17:45.007Z,91.93
2023-01-25T14:20:21.782Z,92.38
2023-01-25T14:22:51.297Z,92.44
2023-01-25T14:25:21.953Z,92.69
2023-01-25T14:27:53.428Z,92.81
2023-01-25T14:30:24.515Z,92.87
2023-01-25T14:32:54.503Z,92.63
2023-01-25T14:35:56.316Z,92.76
2023-01-25T14:38:29.891Z,93.09
2023-01-25T14:41:03.197Z,93.00
2023-01-25T14:43:33.868Z,92.85
2023-01-25T14:46:22.846Z,92.64
2023-01-25T14:49:05.760Z,92.53
2023-01-25T14:51:39.985Z,92.54
2023-01-25T14:54:18.038Z,93.14
2023-01-25T14:56:48.565Z,93.21
2023-01-25T14:59:40.163Z,92.85
2023-01-25T15:02:23.301Z,93.08
2023-01-25T15:05:00.737Z,92.96
2023-01-25T15:07:41.277Z,92.91
2023-01-25T15:10:18.827Z,93.18
2023-01-25T15:13:07.696Z,93.90
2023-01-25T15:15:52.837Z,93.43
2023-01-25T15:18:47.001Z,93.75
2023-01-25T15:21:15.525Z,93.80
2023-01-25T15:23:45.916Z,93.91
2023-01-25T15:26:20.008Z,93.59
2023-01-25T15:28:49.497Z,93.35
2023-01-25T15:31:21.924Z,93.27
2023-01-25T15:33:49.748Z,92.91
2023-01-25T15:36:19.599Z,92.40
2023-01-25T15:38:47.904Z,91.73
2023-01-25T15:41:17.999Z,92.20
2023-01-25T15:43:46.719Z,93.09
2023-01-25T15:46:17.693Z,94.00
2023-01-25T15:48:47.864Z,94.66
2023-01-25T15:51:16.849Z,94.98
2023-01-25T15:53:46.209Z,94.91
2023-01-25T15:56:17.748Z,94.59
2023-01-25T15:58:49.490Z,94.81
2023-01-25T16:01:18.346Z,94.42
2023-01-25T16:03:46.807Z,93.90
2023-01-25T16:06:31.148Z,94.19
2023-01-25T16:08:59.890Z,94.23
2023-01-25T16:11:28.296Z,93.51
2023-01-25T16:13:57.174Z,93.37
2023-01-25T16:16:26.379Z,93.83
2023-01-25T16:18:55.026Z,94.36
2023-01-25T16:21:24.077Z,94.80
2023-01-25T16:23:52.704Z,94.84
2023-01-25T16:26:25.649Z,95.00
2023-01-25T16:28:54.427Z,94.93
2023-01-25T16:31:32.543Z,95.07
2023-01-25T16:34:02.238Z,95.39
2023-01-25T16:36:31.210Z,95.67
2023-01-25T16:39:09.296Z,95.63
2023-01-25T16:41:37.802Z,95.05
2023-01-25T16:44:06.258Z,95.39
2023-01-25T16:46:34.706Z,95.73
2023-01-25T16:49:05.983Z,95.27
2023-01-25T16:51:36.257Z,95.13
2023-01-25T16:54:04.823Z,95.44
2023-01-25T16:56:35.472Z,95.43
2023-01-25T16:59:05.565Z,95.64
2023-01-25T17:01:34.300Z,95.67
2023-01-25T17:04:02.911Z,94.98
2023-01-25T17:06:34.127Z,95.09
2023-01-25T17:09:16.501Z,95.06
2023-01-25T17:11:50.198Z,94.23
2023-01-25T17:14:19.042Z,93.60
2023-01-25T17:16:50.507Z,93.13
2023-01-25T17:19:20.155Z,93.08
2023-01-25T17:21:49.221Z,92.65
2023-01-25T17:24:20.649Z,92.59
2023-01-25T17:26:50.157Z,93.23
2023-01-25T17:29:18.596Z,93.92
2023-01-25T17:31:47.466Z,94.26
2023-01-25T17:34:17.772Z,94.44
2023-01-25T17:36:46.328Z,95.15
2023-01-25T17:39:17.196Z,95.01
2023-01-25T17:41:47.261Z,95.14
2023-01-25T17:44:20.065Z,94.65
2023-01-25T17:46:49.901Z,94.62
2023-01-25T17:49:21.604Z,94.83
2023-01-25T17:51:50.151Z,95.02
2023-01-25T17:54:19.052Z,94.47
2023-01-25T17:56:47.541Z,94.75
2023-01-25T17:59:16.186Z,94.98
2023-01-25T18:01:44.854Z,95.15
2023-01-25T18:04:16.744Z,95.24
2023-01-25T18:06:45.662Z,95.72
2023-01-25T18:09:14.120Z,95.95
2023-01-25T18:11:42.686Z,96.16
2023-01-25T18:14:15.900Z,96.07
2023-01-25T18:16:45.646Z,95.77
2023-01-25T18:19:14.838Z,96.06
2023-01-25T18:21:43.901Z,96.07
2023-01-25T18:24:29.517Z,96.29
2023-01-25T18:27:05.209Z,96.64
2023-01-25T18:29:45.543Z,95.86
2023-01-25T18:32:14.641Z,95.89
2023-01-25T18:34:43.477Z,96.09
2023-01-25T18:37:17.605Z,96.52
2023-01-25T18:39:46.748Z,96.52
2023-01-25T18:42:15.579Z,97.38
2023-01-25T18:44:47.601Z,97.73
2023-01-25T18:47:18.101Z,98.63
2023-01-25T18:49:48.681Z,98.30
2023-01-25T18:52:18.554Z,97.81
2023-01-25T18:54:48.309Z,97.90
2023-01-25T18:57:17.437Z,98.24
2023-01-25T18:59:46.312Z,97.80
2023-01-25T19:02:16.363Z,98.22
2023-01-25T19:04:45.828Z,98.86
2023-01-25T19:07:14.575Z,98.82
2023-01-25T19:09:43.309Z,97.73
2023-01-25T19:12:12.190Z,97.20
2023-01-25T19:14:40.697Z,96.97
2023-01-25T19:17:09.395Z,96.55
2023-01-25T19:19:37.757Z,96.64
2023-01-25T19:22:06.183Z,96.81
2023-01-25T19:24:34.493Z,97.80
2023-01-25T19:27:03.150Z,99.08
2023-01-25T19:29:31.624Z,99.21
2023-01-25T19:31:59.977Z,98.88
2023-01-25T19:34:29.214Z,98.51
2023-01-25T19:36:59.037Z,98.29
2023-01-25T19:39:28.417Z,98.42
2023-01-25T19:41:57.291Z,98.56
2023-01-25T19:44:26.219Z,98.84
2023-01-25T19:46:54.631Z,99.13
2023-01-25T19:49:23.065Z,98.98
2023-01-25T19:51:52.489Z,99.33
2023-01-25T19:54:22.365Z,99.66
2023-01-25T19:56:51.559Z,99.86
2023-01-25T19:59:25.180Z,99.55
2023-01-25T20:01:54.513Z,99.75
2023-01-25T20:04:24.352Z,99.93
2023-01-25T20:06:53.114Z,100.00
2023-01-25T20:09:28.448Z,100.00
2023-01-25T20:11:58.516Z,100.00
2023-01-25T20:14:26.969Z,100.00
2023-01-25T20:16:55.475Z,100.00
2023-01-25T20:19:23.943Z,100.00
2023-01-25T20:21:52.795Z,100.00
2023-01-25T20:24:21.496Z,100.00
2023-01-25T20:26:50.988Z,100.00
2023-01-25T20:29:20.793Z,100.00
2023-01-25T20:31:49.291Z,100.00
2023-01-25T20:34:19.817Z,100.00
2023-01-25T20:36:49.754Z,100.00
2023-01-25T20:39:19.768Z,100.00
2023-01-25T20:41:49.331Z,100.00
2023-01-25T20:44:18.014Z,100.00
2023-01-25T20:46:46.664Z,100.00
2023-01-25T20:49:17.465Z,100.00
2023-01-25T20:51:46.477Z,100.00
2023-01-25T20:54:16.234Z,100.00
2023-01-25T20:56:47.179Z,100.00
2023-01-25T20:59:17.753Z,100.00
2023-01-25T21:01:50.118Z,100.00
2023-01-25T21:04:20.612Z,100.00
2023-01-25T21:06:49.065Z,100.00
2023-01-25T21:09:18.888Z,100.00
2023-01-25T21:11:49.079Z,100.00
2023-01-25T21:14:18.870Z,100.00
2023-01-25T21:16:48.847Z,100.00
2023-01-25T21:19:18.564Z,100.00
2023-01-25T21:21:48.264Z,100.00
2023-01-25T21:24:17.649Z,100.00
2023-01-25T21:26:47.365Z,100.00
2023-01-25T21:29:15.764Z,100.00
2023-01-25T21:31:45.917Z,100.00
2023-01-25T21:34:14.414Z,100.00
2023-01-25T21:36:43.695Z,100.00
2023-01-25T21:39:12.380Z,100.00
2023-01-25T21:41:41.152Z,100.00
2023-01-25T21:44:28.733Z,100.00
2023-01-25T21:47:23.537Z,100.00
2023-01-25T21:50:04.190Z,100.00
2023-01-25T21:52:36.144Z,100.00
2023-01-25T21:55:06.382Z,100.00
2023-01-25T21:57:35.189Z,100.00
2023-01-25T22:00:05.906Z,100.00
2023-01-25T22:02:35.186Z,100.00
2023-01-25T22:05:03.876Z,100.00
2023-01-25T22:07:33.744Z,100.00
2023-01-25T22:10:02.426Z,100.00
2023-01-25T22:12:30.933Z,100.00
2023-01-25T22:14:59.442Z,100.00
2023-01-25T22:17:28.605Z,99.67
2023-01-25T22:19:57.466Z,99.45
2023-01-25T22:22:25.969Z,98.95
2023-01-25T22:24:56.134Z,98.81
2023-01-25T22:27:37.215Z,98.93
2023-01-25T22:30:09.946Z,98.77
2023-01-25T22:32:38.736Z,98.42
2023-01-25T22:35:09.566Z,98.37
2023-01-25T22:37:38.449Z,98.63
2023-01-25T22:40:10.553Z,98.74
2023-01-25T22:42:39.392Z,98.94
2023-01-25T22:45:09.823Z,98.74
2023-01-25T22:47:40.713Z,98.50
2023-01-25T22:50:11.920Z,98.47
2023-01-25T22:52:40.880Z,99.49
2023-01-25T22:55:10.262Z,100.00
2023-01-25T22:57:38.511Z,100.00
2023-01-25T23:00:12.187Z,100.00
2023-01-25T23:02:40.993Z,100.00
2023-01-25T23:05:10.752Z,100.00
2023-01-25T23:07:39.655Z,100.00
2023-01-25T23:10:11.505Z,100.00
2023-01-25T23:12:40.335Z,100.00
2023-01-25T23:15:14.634Z,100.00
2023-01-25T23:18:01.659Z,100.00
2023-01-25T23:20:30.462Z,100.00
2023-01-25T23:22:59.105Z,100.00
2023-01-25T23:25:27.685Z,100.00
2023-01-25T23:27:56.183Z,100.00
2023-01-25T23:30:24.953Z,100.00
2023-01-25T23:32:54.016Z,100.00
2023-01-25T23:35:22.733Z,99.67
2023-01-25T23:37:51.247Z,99.19
2023-01-25T23:40:20.245Z,99.19
2023-01-25T23:42:49.097Z,99.20
2023-01-25T23:45:17.856Z,99.49
2023-01-25T23:47:46.766Z,99.78
2023-01-25T23:50:16.028Z,99.49
2023-01-25T23:52:44.412Z,99.50
2023-01-25T23:55:13.170Z,99.96
2023-01-25T23:57:41.743Z,100.00
